Bloomingdale, Wisconsin
Current Conditions -  °F | °C
As of 7:15 AM on Wednesday 22 Oct 2014 (Local Time) from KY51 Reporting Station
Clear Clear  
Wind Chill: 28°   Ceiling: Unl
Heat Index: 34°   Visibility: 5mi
Dew Point: 34°   Wind: 7mph
Humidity: 100%   Direction: 150°SSE
Pressure: 30.31"   Gusts: NA
Location:  43.6744°N, 90.8807°W
Report Text: KY51 221215Z AUTO 15006KT 5SM CLR 01/01 A3031 RMK AO1 T00120012
Loading
Personal Weather Stations






























Interactive Weather Map
Tropical Storm Tracking
New forecast layout! Learn more

10-Day Weather Forecast

Advertisements
Track Severe Weather on mobile